KLAL

Lakeland Linder Regional Airport

Lakeland, Florida, USA
METAR KLAL 201550Z 00000KT 10SM FEW030 31/23 A3013
Observed Flight Rules
Aug-20 @ 15:50 UTC (34 minutes ago) Visual Flight Rules
Visibility Clouds
10 miles
  • Few at 3,000' AGL
Temperatures Readings
Current 31°C / 88°F
Dewpoint 23°C / 73°F
Humidity 62%
Altimeter 30.13" Hg
Pressure 1020 hPa
Elevation 43
METAR KLAL 201550Z 00000KT 10SM FEW030 31/23 A3013
Observed Flight Rules
Aug-20 @ 15:50 UTC
(34 minutes ago)
VFR
Clouds
  • Few at 3,000' AGL
Temperature Dewpoint
31°C / 88°F 23°C / 73°F
Humidity Altimeter Pressure
62% 30.13" Hg 1020 hPa